createdAt,value
2022-09-15T00:02:12.518Z,90.41
2022-09-15T00:04:38.863Z,90.53
2022-09-15T00:07:05.547Z,89.77
2022-09-15T00:09:31.820Z,90.17
2022-09-15T00:11:58.334Z,90.01
2022-09-15T00:14:24.641Z,90.41
2022-09-15T00:16:50.949Z,90.31
2022-09-15T00:19:17.293Z,90.71
2022-09-15T00:21:43.652Z,90.60
2022-09-15T00:24:09.940Z,90.93
2022-09-15T00:26:36.558Z,90.51
2022-09-15T00:29:04.142Z,90.27
2022-09-15T00:31:31.117Z,90.28
2022-09-15T00:33:58.412Z,90.54
2022-09-15T00:36:25.361Z,90.10
2022-09-15T00:38:52.111Z,90.10
2022-09-15T00:41:20.073Z,89.98
2022-09-15T00:43:48.224Z,89.42
2022-09-15T00:46:15.349Z,89.64
2022-09-15T00:48:44.328Z,90.01
2022-09-15T00:51:11.805Z,89.58
2022-09-15T00:53:38.632Z,90.04
2022-09-15T00:56:06.680Z,90.06
2022-09-15T00:58:36.742Z,90.06
2022-09-15T01:01:04.665Z,89.75
2022-09-15T01:03:32.526Z,88.66
2022-09-15T01:06:01.909Z,89.35
2022-09-15T01:08:32.301Z,89.76
2022-09-15T01:10:59.258Z,89.49
2022-09-15T01:13:26.094Z,89.00
2022-09-15T01:15:52.437Z,89.24
2022-09-15T01:18:30.779Z,88.97
2022-09-15T01:21:14.476Z,89.35
2022-09-15T01:23:53.164Z,89.28
2022-09-15T01:26:22.734Z,89.25
2022-09-15T01:29:09.377Z,89.62
2022-09-15T01:31:46.885Z,89.55
2022-09-15T01:34:16.659Z,89.71
2022-09-15T01:36:47.557Z,89.44
2022-09-15T01:39:16.608Z,89.64
2022-09-15T01:41:45.672Z,89.80
2022-09-15T01:44:14.243Z,89.79
2022-09-15T01:46:45.860Z,89.18
2022-09-15T01:49:14.952Z,89.59
2022-09-15T01:51:42.922Z,89.60
2022-09-15T01:54:10.968Z,89.49
2022-09-15T01:56:38.537Z,89.65
2022-09-15T01:59:05.452Z,89.62
2022-09-15T02:01:39.399Z,89.29
2022-09-15T02:04:18.034Z,87.60
2022-09-15T02:06:50.625Z,88.13
2022-09-15T02:09:26.248Z,88.50
2022-09-15T02:12:01.685Z,88.52
2022-09-15T02:14:36.849Z,88.75
2022-09-15T02:17:03.186Z,88.75
2022-09-15T02:19:52.752Z,88.83
2022-09-15T02:22:22.567Z,88.61
2022-09-15T02:24:54.129Z,88.53
2022-09-15T02:27:22.620Z,88.94
2022-09-15T02:29:49.843Z,88.79
2022-09-15T02:32:17.566Z,89.02
2022-09-15T02:34:45.393Z,88.89
2022-09-15T02:37:12.885Z,88.74
2022-09-15T02:39:43.302Z,88.83
2022-09-15T02:42:09.932Z,88.63
2022-09-15T02:44:36.519Z,88.18
2022-09-15T02:47:03.169Z,88.00
2022-09-15T02:49:29.746Z,88.00
2022-09-15T02:51:55.990Z,88.13
2022-09-15T02:54:22.454Z,87.99
2022-09-15T02:56:48.972Z,87.71
2022-09-15T02:59:15.203Z,87.60
2022-09-15T03:01:41.621Z,87.45
2022-09-15T03:04:07.896Z,87.97
2022-09-15T03:06:34.130Z,88.16
2022-09-15T03:09:01.714Z,88.51
2022-09-15T03:11:29.049Z,88.41
2022-09-15T03:13:59.760Z,88.39
2022-09-15T03:16:26.667Z,88.57
2022-09-15T03:18:56.885Z,88.80
2022-09-15T03:21:23.403Z,88.84
2022-09-15T03:23:49.723Z,89.03
2022-09-15T03:26:16.330Z,88.80
2022-09-15T03:28:43.156Z,88.86
2022-09-15T03:31:09.678Z,88.69
2022-09-15T03:33:36.625Z,88.74
2022-09-15T03:36:03.905Z,88.69
2022-09-15T03:38:30.222Z,88.48
2022-09-15T03:41:07.331Z,88.87
2022-09-15T03:43:34.691Z,89.30
2022-09-15T03:46:01.207Z,88.87
2022-09-15T03:48:28.242Z,88.87
2022-09-15T03:50:54.920Z,88.93
2022-09-15T03:53:21.338Z,89.11
2022-09-15T03:55:48.008Z,88.84
2022-09-15T03:58:14.706Z,88.54
2022-09-15T04:00:41.547Z,88.45
2022-09-15T04:03:08.879Z,88.46
2022-09-15T04:05:35.967Z,88.43
2022-09-15T04:08:02.810Z,88.79
2022-09-15T04:10:29.490Z,88.88
2022-09-15T04:12:55.822Z,89.03
2022-09-15T04:15:22.219Z,88.64
2022-09-15T04:17:48.642Z,88.34
2022-09-15T04:20:15.284Z,88.49
2022-09-15T04:22:41.577Z,88.82
2022-09-15T04:25:08.364Z,88.49
2022-09-15T04:27:34.621Z,88.56
2022-09-15T04:30:01.083Z,88.14
2022-09-15T04:32:28.709Z,88.24
2022-09-15T04:34:55.074Z,87.99
2022-09-15T04:37:21.883Z,88.05
2022-09-15T04:39:50.280Z,87.81
2022-09-15T04:42:16.678Z,88.15
2022-09-15T04:44:42.976Z,88.13
2022-09-15T04:47:09.267Z,88.23
2022-09-15T04:49:35.490Z,87.63
2022-09-15T04:52:02.833Z,87.57
2022-09-15T04:54:31.186Z,87.32
2022-09-15T04:56:57.693Z,87.48
2022-09-15T04:59:24.185Z,87.59
2022-09-15T05:01:53.538Z,87.50
2022-09-15T05:04:19.938Z,87.51
2022-09-15T05:06:46.162Z,87.40
2022-09-15T05:09:13.074Z,87.52
2022-09-15T05:11:39.567Z,87.71
2022-09-15T05:14:06.253Z,87.52
2022-09-15T05:16:32.670Z,87.22
2022-09-15T05:19:00.312Z,87.29
2022-09-15T05:21:35.204Z,87.55
2022-09-15T05:24:01.609Z,87.03
2022-09-15T05:26:28.906Z,86.99
2022-09-15T05:28:56.080Z,87.05
2022-09-15T05:31:22.743Z,87.11
2022-09-15T05:33:50.479Z,87.13
2022-09-15T05:36:17.146Z,87.18
2022-09-15T05:38:43.985Z,87.20
2022-09-15T05:41:12.001Z,87.25
2022-09-15T05:43:38.874Z,87.09
2022-09-15T05:46:05.924Z,86.97
2022-09-15T05:48:32.806Z,86.96
2022-09-15T05:50:59.102Z,87.04
2022-09-15T05:53:26.488Z,86.82
2022-09-15T05:55:56.376Z,86.61
2022-09-15T05:58:22.941Z,86.17
2022-09-15T06:00:49.385Z,86.37
2022-09-15T06:03:16.433Z,86.30
2022-09-15T06:05:42.912Z,86.88
2022-09-15T06:08:09.363Z,86.02
2022-09-15T06:10:35.630Z,85.00
2022-09-15T06:13:01.961Z,84.76
2022-09-15T06:15:28.177Z,85.28
2022-09-15T06:17:54.498Z,85.58
2022-09-15T06:20:21.002Z,85.35
2022-09-15T06:22:47.694Z,85.52
2022-09-15T06:25:14.110Z,85.72
2022-09-15T06:27:40.740Z,85.29
2022-09-15T06:30:08.024Z,85.95
2022-09-15T06:32:34.633Z,86.08
2022-09-15T06:35:00.992Z,85.63
2022-09-15T06:37:27.358Z,86.16
2022-09-15T06:39:53.643Z,86.23
2022-09-15T06:42:20.010Z,86.47
2022-09-15T06:44:46.388Z,87.08
2022-09-15T06:47:14.572Z,85.62
2022-09-15T06:49:40.845Z,86.07
2022-09-15T06:52:08.119Z,86.31
2022-09-15T06:54:34.387Z,84.58
2022-09-15T06:57:00.852Z,83.97
2022-09-15T06:59:27.518Z,84.19
2022-09-15T07:01:54.364Z,84.73
2022-09-15T07:04:21.126Z,84.90
2022-09-15T07:06:47.912Z,84.32
2022-09-15T07:09:14.205Z,82.31
2022-09-15T07:11:40.636Z,82.84
2022-09-15T07:14:06.973Z,81.41
2022-09-15T07:16:33.682Z,83.22
2022-09-15T07:19:00.033Z,83.00
2022-09-15T07:21:26.337Z,82.92
2022-09-15T07:23:52.754Z,83.36
2022-09-15T07:26:22.588Z,83.94
2022-09-15T07:28:50.242Z,84.49
2022-09-15T07:31:18.296Z,84.37
2022-09-15T07:33:44.886Z,83.66
2022-09-15T07:36:11.577Z,83.81
2022-09-15T07:38:42.399Z,83.50
2022-09-15T07:41:10.834Z,81.70
2022-09-15T07:43:37.695Z,81.45
2022-09-15T07:46:04.592Z,80.18
2022-09-15T07:48:30.995Z,79.83
2022-09-15T07:50:57.640Z,79.32
2022-09-15T07:53:24.039Z,78.35
2022-09-15T07:55:53.399Z,79.10
2022-09-15T07:58:19.718Z,80.32
2022-09-15T08:00:46.227Z,80.97
2022-09-15T08:03:12.576Z,81.44
2022-09-15T08:05:42.322Z,80.28
2022-09-15T08:08:11.683Z,80.37
2022-09-15T08:10:38.758Z,81.67
2022-09-15T08:13:04.984Z,78.95
2022-09-15T08:15:31.661Z,78.08
2022-09-15T08:17:58.001Z,78.47
2022-09-15T08:20:24.552Z,79.62
2022-09-15T08:22:50.778Z,78.28
2022-09-15T08:25:17.129Z,78.37
2022-09-15T08:27:43.582Z,77.35
2022-09-15T08:30:10.090Z,77.38
2022-09-15T08:32:36.389Z,78.98
2022-09-15T08:35:02.709Z,73.66
2022-09-15T08:37:28.970Z,76.30
2022-09-15T08:39:55.523Z,76.16
2022-09-15T08:42:22.907Z,75.33
2022-09-15T08:44:53.669Z,74.49
2022-09-15T08:47:23.111Z,76.25
2022-09-15T08:49:56.138Z,75.42
2022-09-15T08:52:26.690Z,75.75
2022-09-15T08:54:55.083Z,75.04
2022-09-15T08:57:23.284Z,74.60
2022-09-15T08:59:49.627Z,75.98
2022-09-15T09:02:28.523Z,76.57
2022-09-15T09:05:07.297Z,75.90
2022-09-15T09:07:33.654Z,72.99
2022-09-15T09:10:06.954Z,73.79
2022-09-15T09:12:54.939Z,75.44
2022-09-15T09:15:31.025Z,75.72
2022-09-15T09:18:05.901Z,75.89
2022-09-15T09:20:32.149Z,74.60
2022-09-15T09:22:59.301Z,76.81
2022-09-15T09:25:28.155Z,75.31
2022-09-15T09:27:56.803Z,75.14
2022-09-15T09:30:24.514Z,73.92
2022-09-15T09:33:09.600Z,74.44
2022-09-15T09:35:43.901Z,74.30
2022-09-15T09:38:11.042Z,74.29
2022-09-15T09:40:37.958Z,74.91
2022-09-15T09:43:04.551Z,75.47
2022-09-15T09:45:31.035Z,76.32
2022-09-15T09:48:09.158Z,75.97
2022-09-15T09:50:35.444Z,73.96
2022-09-15T09:53:20.521Z,73.80
2022-09-15T09:55:46.889Z,72.84
2022-09-15T09:58:14.305Z,72.51
2022-09-15T10:00:40.882Z,71.39
2022-09-15T10:03:18.201Z,69.36
2022-09-15T10:05:45.429Z,71.03
2022-09-15T10:08:15.397Z,72.95
2022-09-15T10:10:49.214Z,72.63
2022-09-15T10:13:15.945Z,71.64
2022-09-15T10:15:42.442Z,71.79
2022-09-15T10:18:22.693Z,71.92
2022-09-15T10:20:51.071Z,69.14
2022-09-15T10:23:17.272Z,71.55
2022-09-15T10:25:58.703Z,72.57
2022-09-15T10:28:26.941Z,73.39
2022-09-15T10:30:59.323Z,72.80
2022-09-15T10:33:26.610Z,71.17
2022-09-15T10:35:54.660Z,71.69
2022-09-15T10:38:25.994Z,72.12
2022-09-15T10:40:52.192Z,71.16
2022-09-15T10:43:33.050Z,72.69
2022-09-15T10:46:03.474Z,73.60
2022-09-15T10:48:41.694Z,74.94
2022-09-15T10:51:08.008Z,75.76
2022-09-15T10:53:59.199Z,74.31
2022-09-15T10:56:28.514Z,75.11
2022-09-15T10:59:20.639Z,74.45
2022-09-15T11:01:52.842Z,74.05
2022-09-15T11:04:51.629Z,69.42
2022-09-15T11:07:36.395Z,69.59
2022-09-15T11:10:16.365Z,70.11
2022-09-15T11:12:45.977Z,70.07
2022-09-15T11:15:30.912Z,72.01
2022-09-15T11:18:03.923Z,71.28
2022-09-15T11:20:36.406Z,70.63
2022-09-15T11:23:11.385Z,71.50
2022-09-15T11:25:43.951Z,69.92
2022-09-15T11:28:17.966Z,69.49
2022-09-15T11:30:48.088Z,68.46
2022-09-15T11:33:20.460Z,68.98
2022-09-15T11:35:56.750Z,68.11
2022-09-15T11:38:30.569Z,70.43
2022-09-15T11:41:01.652Z,64.75
2022-09-15T11:43:27.863Z,66.41
2022-09-15T11:45:56.387Z,68.08
2022-09-15T11:48:30.232Z,68.86
2022-09-15T11:50:58.813Z,66.00
2022-09-15T11:53:33.018Z,66.89
2022-09-15T11:56:08.524Z,68.85
2022-09-15T11:58:34.743Z,67.38
2022-09-15T12:01:12.132Z,67.07
2022-09-15T12:03:56.899Z,63.86
2022-09-15T12:06:26.014Z,61.46
2022-09-15T12:08:56.903Z,60.93
2022-09-15T12:11:25.113Z,63.64
2022-09-15T12:13:52.420Z,61.43
2022-09-15T12:16:19.563Z,58.91
2022-09-15T12:18:54.726Z,61.36
2022-09-15T12:21:46.046Z,61.76
2022-09-15T12:24:14.704Z,61.56
2022-09-15T12:26:41.109Z,61.04
2022-09-15T12:29:22.483Z,60.64
2022-09-15T12:31:48.850Z,59.73
2022-09-15T12:34:35.456Z,59.29
2022-09-15T12:37:11.345Z,59.26
2022-09-15T12:39:39.861Z,59.58
2022-09-15T12:42:08.488Z,57.62
2022-09-15T12:44:37.066Z,56.99
2022-09-15T12:47:04.702Z,58.41
2022-09-15T12:49:41.618Z,58.90
2022-09-15T12:52:08.388Z,58.08
2022-09-15T12:54:35.722Z,56.54
2022-09-15T12:57:02.402Z,56.01
2022-09-15T12:59:28.821Z,55.57
2022-09-15T13:01:55.866Z,53.41
2022-09-15T13:04:25.032Z,51.44
2022-09-15T13:07:10.445Z,50.02
2022-09-15T13:09:56.227Z,47.16
2022-09-15T13:12:24.757Z,48.97
2022-09-15T13:14:54.351Z,50.12
2022-09-15T13:17:22.693Z,49.11
2022-09-15T13:19:51.700Z,49.95
2022-09-15T13:22:30.200Z,47.20
2022-09-15T13:25:05.654Z,49.58
2022-09-15T13:27:48.621Z,49.55
2022-09-15T13:30:20.793Z,46.91
2022-09-15T13:32:58.690Z,49.87
2022-09-15T13:35:33.573Z,47.65
2022-09-15T13:38:29.135Z,47.77
2022-09-15T13:41:00.489Z,48.01
2022-09-15T13:43:35.353Z,50.32
2022-09-15T13:46:11.076Z,50.77
2022-09-15T13:48:46.628Z,50.37
2022-09-15T13:51:23.688Z,49.43
2022-09-15T13:53:53.278Z,52.49
2022-09-15T13:56:25.503Z,53.54
2022-09-15T13:58:56.599Z,52.03
2022-09-15T14:01:26.356Z,52.59
2022-09-15T14:03:54.724Z,50.80
2022-09-15T14:06:23.413Z,52.07
2022-09-15T14:08:51.690Z,51.82
2022-09-15T14:11:21.987Z,50.35
2022-09-15T14:13:49.770Z,50.42
2022-09-15T14:16:24.527Z,52.24
2022-09-15T14:18:51.450Z,51.21
2022-09-15T14:21:25.015Z,51.74
2022-09-15T14:23:52.801Z,52.32
2022-09-15T14:26:20.953Z,51.12
2022-09-15T14:28:57.057Z,49.96
2022-09-15T14:31:28.142Z,51.96
2022-09-15T14:33:54.463Z,51.04
2022-09-15T14:36:47.333Z,52.80
2022-09-15T14:39:18.905Z,52.37
2022-09-15T14:41:46.934Z,52.42
2022-09-15T14:47:18.078Z,51.68
2022-09-15T14:49:44.288Z,52.13
2022-09-15T14:52:25.809Z,53.10
2022-09-15T14:54:55.449Z,50.68
2022-09-15T14:57:26.500Z,53.08
2022-09-15T14:59:58.353Z,54.93
2022-09-15T15:02:24.917Z,49.13
2022-09-15T15:04:56.323Z,51.88
2022-09-15T15:07:30.819Z,51.71
2022-09-15T15:10:06.567Z,51.60
2022-09-15T15:12:58.936Z,50.01
2022-09-15T15:15:25.614Z,49.05
2022-09-15T15:17:52.810Z,50.31
2022-09-15T15:20:20.728Z,51.71
2022-09-15T15:22:47.270Z,49.24
2022-09-15T15:25:22.317Z,49.22
2022-09-15T15:27:52.965Z,49.65
2022-09-15T15:30:25.244Z,49.45
2022-09-15T15:32:51.580Z,49.21
2022-09-15T15:35:19.100Z,50.05
2022-09-15T15:37:46.025Z,50.65
2022-09-15T15:40:18.315Z,51.09
2022-09-15T15:42:52.228Z,49.03
2022-09-15T15:45:24.149Z,50.42
2022-09-15T15:47:50.538Z,49.41
2022-09-15T15:50:21.470Z,48.92
2022-09-15T15:52:48.421Z,50.78
2022-09-15T15:55:16.184Z,50.72
2022-09-15T15:57:42.579Z,50.36
2022-09-15T16:00:21.346Z,51.34
2022-09-15T16:02:48.010Z,51.92
2022-09-15T16:05:14.338Z,52.10
2022-09-15T16:07:40.650Z,51.86
2022-09-15T16:10:08.124Z,50.15
2022-09-15T16:12:35.472Z,51.81
2022-09-15T16:15:02.103Z,52.98
2022-09-15T16:17:28.395Z,53.05
2022-09-15T16:19:54.946Z,54.16
2022-09-15T16:22:21.257Z,53.14
2022-09-15T16:24:47.564Z,54.29
2022-09-15T16:27:15.119Z,54.60
2022-09-15T16:29:41.494Z,54.43
2022-09-15T16:32:10.669Z,54.88
2022-09-15T16:34:36.933Z,54.71
2022-09-15T16:37:03.262Z,55.63
2022-09-15T16:39:29.626Z,55.56
2022-09-15T16:41:56.007Z,55.55
2022-09-15T16:44:22.738Z,55.96
2022-09-15T16:46:49.328Z,55.30
2022-09-15T16:49:15.600Z,53.48
2022-09-15T16:51:41.832Z,55.12
2022-09-15T16:54:15.211Z,54.63
2022-09-15T16:56:42.320Z,55.39
2022-09-15T16:59:08.559Z,55.87
2022-09-15T17:01:34.906Z,56.47
2022-09-15T17:04:01.662Z,57.43
2022-09-15T17:06:28.271Z,56.01
2022-09-15T17:08:54.693Z,57.04
2022-09-15T17:11:21.101Z,58.31
2022-09-15T17:13:47.822Z,56.81
2022-09-15T17:16:15.425Z,57.33
2022-09-15T17:18:42.013Z,58.15
2022-09-15T17:21:12.025Z,57.54
2022-09-15T17:23:39.588Z,58.98
2022-09-15T17:26:17.555Z,57.96
2022-09-15T17:28:44.284Z,56.68
2022-09-15T17:31:13.563Z,57.02
2022-09-15T17:33:39.909Z,57.37
2022-09-15T17:36:07.512Z,57.68
2022-09-15T17:38:34.160Z,56.73
2022-09-15T17:41:00.553Z,58.57
2022-09-15T17:43:28.597Z,58.10
2022-09-15T17:45:55.412Z,57.77
2022-09-15T17:48:22.178Z,58.23
2022-09-15T17:50:48.989Z,57.94
2022-09-15T17:53:16.721Z,58.50
2022-09-15T17:55:43.385Z,59.37
2022-09-15T17:58:10.126Z,59.80
2022-09-15T18:00:38.142Z,61.10
2022-09-15T18:03:18.390Z,60.95
2022-09-15T18:05:44.674Z,61.22
2022-09-15T18:08:11.572Z,62.81
2022-09-15T18:10:37.908Z,63.18
2022-09-15T18:13:05.335Z,62.87
2022-09-15T18:15:33.044Z,62.53
2022-09-15T18:18:03.237Z,62.84
2022-09-15T18:20:31.463Z,63.09
2022-09-15T18:22:58.272Z,63.11
2022-09-15T18:25:25.970Z,65.18
2022-09-15T18:27:52.526Z,64.77
2022-09-15T18:30:19.422Z,64.52
2022-09-15T18:32:45.681Z,64.02
2022-09-15T18:35:17.681Z,63.91
2022-09-15T18:37:45.076Z,64.16
2022-09-15T18:40:12.330Z,64.54
2022-09-15T18:42:39.307Z,64.83
2022-09-15T18:45:06.430Z,64.64
2022-09-15T18:47:33.311Z,64.30
2022-09-15T18:49:59.682Z,64.06
2022-09-15T18:52:26.124Z,64.27
2022-09-15T18:54:52.510Z,64.79
2022-09-15T18:57:19.175Z,65.05
2022-09-15T18:59:51.377Z,64.96
2022-09-15T19:02:18.252Z,65.35
2022-09-15T19:04:44.559Z,65.49
2022-09-15T19:07:11.398Z,64.99
2022-09-15T19:09:38.320Z,65.84
2022-09-15T19:12:04.665Z,64.30
2022-09-15T19:14:31.459Z,64.34
2022-09-15T19:16:58.603Z,64.80
2022-09-15T19:19:25.271Z,65.02
2022-09-15T19:21:51.554Z,65.35
2022-09-15T19:24:17.794Z,65.24
2022-09-15T19:26:44.505Z,65.31
2022-09-15T19:29:10.802Z,64.29
2022-09-15T19:31:41.664Z,63.82
2022-09-15T19:34:08.479Z,64.75
2022-09-15T19:36:35.145Z,64.15
2022-09-15T19:39:01.462Z,64.17
2022-09-15T19:41:27.728Z,65.00
2022-09-15T19:43:54.270Z,65.31
2022-09-15T19:46:22.472Z,64.14
2022-09-15T19:48:50.250Z,65.06
2022-09-15T19:51:17.250Z,65.12
2022-09-15T19:53:44.279Z,65.15
2022-09-15T19:56:15.430Z,64.34
2022-09-15T19:58:41.671Z,64.76
2022-09-15T20:01:09.031Z,64.85
2022-09-15T20:03:35.369Z,65.09
2022-09-15T20:06:04.292Z,65.91
2022-09-15T20:08:30.781Z,65.70
2022-09-15T20:10:57.148Z,65.17
2022-09-15T20:13:23.507Z,65.50
2022-09-15T20:15:59.417Z,65.80
2022-09-15T20:18:25.794Z,65.71
2022-09-15T20:20:52.741Z,65.72
2022-09-15T20:23:19.392Z,66.04
2022-09-15T20:25:57.758Z,65.56
2022-09-15T20:28:24.142Z,66.40
2022-09-15T20:30:59.862Z,66.53
2022-09-15T20:33:26.541Z,65.97
2022-09-15T20:35:52.876Z,66.16
2022-09-15T20:38:19.689Z,65.37
2022-09-15T20:40:46.457Z,65.41
2022-09-15T20:43:12.708Z,66.03
2022-09-15T20:45:39.051Z,65.58
2022-09-15T20:48:05.284Z,66.13
2022-09-15T20:50:31.581Z,65.76
2022-09-15T20:52:58.041Z,66.62
2022-09-15T20:55:24.344Z,66.37
2022-09-15T20:57:50.772Z,65.93
2022-09-15T21:00:17.110Z,66.17
2022-09-15T21:02:43.395Z,66.49
2022-09-15T21:05:10.097Z,66.59
2022-09-15T21:07:36.326Z,66.88
2022-09-15T21:10:02.896Z,67.28
2022-09-15T21:12:29.266Z,68.11
2022-09-15T21:14:55.678Z,67.67
2022-09-15T21:17:22.338Z,67.55
2022-09-15T21:19:48.698Z,67.21
2022-09-15T21:22:15.053Z,66.50
2022-09-15T21:24:41.276Z,67.49
2022-09-15T21:27:07.853Z,67.35
2022-09-15T21:29:34.089Z,67.06
2022-09-15T21:32:00.432Z,67.66
2022-09-15T21:34:27.040Z,68.32
2022-09-15T21:36:53.321Z,68.43
2022-09-15T21:39:19.690Z,68.93
2022-09-15T21:41:46.250Z,69.50
2022-09-15T21:44:12.595Z,69.39
2022-09-15T21:46:38.989Z,69.91
2022-09-15T21:49:05.293Z,70.07
2022-09-15T21:51:31.528Z,69.73
2022-09-15T21:53:58.779Z,70.13
2022-09-15T21:56:25.865Z,70.41
2022-09-15T21:58:52.343Z,69.82
2022-09-15T22:01:20.372Z,69.89
2022-09-15T22:03:54.143Z,69.91
2022-09-15T22:06:22.472Z,70.08
2022-09-15T22:08:48.794Z,69.32
2022-09-15T22:11:15.360Z,69.94
2022-09-15T22:13:43.083Z,69.82
2022-09-15T22:16:13.978Z,70.10
2022-09-15T22:18:41.394Z,69.43
2022-09-15T22:21:09.596Z,69.73
2022-09-15T22:23:35.910Z,70.61
2022-09-15T22:26:04.285Z,70.03
2022-09-15T22:28:31.244Z,70.59
2022-09-15T22:31:00.934Z,71.37
2022-09-15T22:33:27.712Z,71.89
2022-09-15T22:35:54.099Z,72.36
2022-09-15T22:38:21.116Z,72.73
2022-09-15T22:40:47.470Z,72.73
2022-09-15T22:43:13.881Z,73.15
2022-09-15T22:45:40.262Z,71.71
2022-09-15T22:48:06.857Z,72.38
2022-09-15T22:50:33.415Z,72.91
2022-09-15T22:52:59.918Z,73.69
2022-09-15T22:55:26.226Z,74.20
2022-09-15T22:57:52.521Z,73.70
2022-09-15T23:00:18.839Z,75.16
2022-09-15T23:02:46.303Z,73.56
2022-09-15T23:05:12.904Z,71.99
2022-09-15T23:07:39.201Z,72.03
2022-09-15T23:10:05.506Z,72.22
2022-09-15T23:12:32.339Z,71.71
2022-09-15T23:14:58.661Z,71.99
2022-09-15T23:17:25.013Z,71.71
2022-09-15T23:19:51.237Z,72.58
2022-09-15T23:22:17.468Z,72.34
2022-09-15T23:24:43.857Z,72.42
2022-09-15T23:27:10.386Z,72.17
2022-09-15T23:29:36.669Z,73.13
2022-09-15T23:32:03.008Z,73.69
2022-09-15T23:34:29.235Z,73.44
2022-09-15T23:36:55.725Z,73.17
2022-09-15T23:39:22.081Z,73.19
2022-09-15T23:41:48.512Z,73.69
2022-09-15T23:44:14.870Z,74.13
2022-09-15T23:46:41.233Z,73.64
2022-09-15T23:49:07.796Z,73.49
2022-09-15T23:51:34.486Z,73.94
2022-09-15T23:54:00.781Z,74.48
2022-09-15T23:56:27.029Z,75.31
2022-09-15T23:58:54.062Z,75.70
